Aeroporto :
LOGIN :

Iscrizione | Disclaimer

   EN    FR    IT 

 










Sommario :    VFR   VFR Marginale   IFR   IFR Intensivo   IFR Molto Intensivo
Visibilità : 
Base nubi : 
>= 8 km
>= 3000ft
5 / 8 km
1000 / 3000 ft
1500m / 5 km
500 / 1000 ft
800 / 1500m
200 / 500 ft
< 800m
< 200 ft
Simboli :   Temporali  Nebbia  Neve Forte  Precipitazioni Forti  Vento > 20 kt
SIGMETs :   Varie  Temporali  Ghiacco  Turbolenza  Onda orograficha  Ceneri Vulcaniche






- Altitudine del aeroporto : 26 ft
- Codice IATA : GLA


EGPF - Glasgow

ULTIMO METAR :
  • 290450Z AUTO 33009KT 9999 NCD 02/M05 Q1048

METARs OBSOLETI :
  • 290420Z AUTO 30005KT 9999 NCD 01/M04 Q1048
  • 290350Z AUTO 33005KT 9999 NCD 01/M05 Q1048
  • 290320Z AUTO 34006KT 9999 NCD 02/M04 Q1048
  • 290250Z AUTO 34004KT 320V020 9999 NCD 02/M04 Q1048
  • 290220Z AUTO 35006KT 310V020 9999 NCD 02/M04 Q1047
  • 290150Z AUTO 02006KT 9999 OVC049 03/M04 Q1047

TAF TAF EGPF
Valido dal 29 a 00 ore il 30 a 00 ore UTC


282256Z 2900/2924 03009KT 9999 SCT045
ATIS : +44 141 887 7449



MetMap, La meteo Aeronautica in un colpo d'occhio ! - Copyright ORBIFLY Dicembre 2007 - Disclaimer

ORBIFLY MET'MAP TEAM :

Programmazione e sviluppo : Alexandra Zaïnal
Concezione : Baudouin d'Aumeries
Aiuto per la programmazione : Marc-Olivier Méhu
Supporto tecnico e logistico : Manuel Goepfert
Aiuto per la traduzione : Arnaldo La Scala

Contatto : metmap@orbifly.com




FONTI E CREDITI :

   NOAA